createdAt,value
2019-01-05T00:00:03.321Z,5.41
2019-01-05T00:03:09.997Z,5.43
2019-01-05T00:06:13.887Z,5.46
2019-01-05T00:09:02.041Z,5.47
2019-01-05T00:11:49.048Z,5.42
2019-01-05T00:14:44.008Z,5.48
2019-01-05T00:17:31.515Z,5.48
2019-01-05T00:20:22.894Z,5.51
2019-01-05T00:23:20.098Z,5.54
2019-01-05T00:26:11.928Z,5.57
2019-01-05T00:29:03.002Z,5.54
2019-01-05T00:31:51.364Z,5.57
2019-01-05T00:34:45.914Z,5.60
2019-01-05T00:37:34.942Z,5.57
2019-01-05T00:40:20.047Z,5.57
2019-01-05T00:43:08.294Z,5.61
2019-01-05T00:45:55.788Z,5.58
2019-01-05T00:48:42.483Z,5.62
2019-01-05T00:51:29.866Z,5.61
2019-01-05T00:54:21.848Z,5.68
2019-01-05T00:57:10.261Z,5.66
2019-01-05T01:00:13.594Z,5.65
2019-01-05T01:03:02.058Z,5.69
2019-01-05T01:05:49.212Z,5.67
2019-01-05T01:08:36.283Z,5.69
2019-01-05T01:11:33.282Z,5.68
2019-01-05T01:14:29.535Z,5.68
2019-01-05T01:17:19.688Z,5.69
2019-01-05T01:20:11.892Z,5.70
2019-01-05T01:22:52.524Z,5.71
2019-01-05T01:25:49.615Z,5.72
2019-01-05T01:28:36.552Z,5.72
2019-01-05T01:31:23.828Z,5.76
2019-01-05T01:34:15.126Z,5.75
2019-01-05T01:37:03.466Z,5.75
2019-01-05T01:39:51.686Z,5.76
2019-01-05T01:42:58.671Z,5.78
2019-01-05T01:45:58.152Z,5.77
2019-01-05T01:48:42.684Z,5.77
2019-01-05T01:51:29.778Z,5.77
2019-01-05T01:54:16.970Z,5.78
2019-01-05T01:57:05.848Z,5.79
2019-01-05T02:00:15.018Z,5.80
2019-01-05T02:03:10.072Z,5.80
2019-01-05T02:06:05.918Z,5.83
2019-01-05T02:08:53.985Z,5.84
2019-01-05T02:11:42.747Z,5.86
2019-01-05T02:14:42.354Z,5.89
2019-01-05T02:17:34.819Z,5.89
2019-01-05T02:21:03.186Z,5.91
2019-01-05T02:24:40.994Z,5.93
2019-01-05T02:28:01.458Z,5.91
2019-01-05T02:35:18.856Z,5.95
2019-01-05T02:38:46.490Z,5.97
2019-01-05T02:42:01.560Z,5.99
2019-01-05T02:45:28.623Z,6.00
2019-01-05T02:48:57.562Z,6.01
2019-01-05T02:52:31.524Z,6.00
2019-01-05T02:56:03.217Z,6.00
2019-01-05T02:59:19.398Z,6.01
2019-01-05T03:02:57.556Z,6.02
2019-01-05T03:06:25.857Z,6.03
2019-01-05T03:09:35.374Z,6.06
2019-01-05T03:13:20.485Z,6.02
2019-01-05T03:16:59.192Z,6.01
2019-01-05T03:20:01.250Z,6.01
2019-01-05T03:23:17.795Z,6.02
2019-01-05T03:27:01.936Z,6.03
2019-01-05T03:30:15.728Z,6.06
2019-01-05T03:33:33.825Z,6.08
2019-01-05T03:37:14.971Z,6.06
2019-01-05T03:40:32.546Z,6.11
2019-01-05T03:43:58.888Z,6.11
2019-01-05T03:47:39.212Z,6.12
2019-01-05T03:50:55.575Z,6.12
2019-01-05T03:54:39.110Z,6.14
2019-01-05T03:57:50.773Z,5.94
2019-01-05T04:01:25.998Z,6.18
2019-01-05T04:04:44.101Z,6.18
2019-01-05T04:07:54.472Z,6.19
2019-01-05T04:11:46.922Z,6.22
2019-01-05T04:15:12.568Z,6.23
2019-01-05T04:18:45.745Z,6.21
2019-01-05T04:22:16.376Z,6.25
2019-01-05T04:25:46.214Z,6.06
2019-01-05T04:29:22.407Z,6.27
2019-01-05T04:32:41.512Z,6.25
2019-01-05T04:36:00.235Z,6.29
2019-01-05T04:39:54.553Z,6.29
2019-01-05T04:43:30.635Z,6.29
2019-01-05T04:46:59.102Z,6.28
2019-01-05T04:50:40.736Z,6.31
2019-01-05T04:54:12.240Z,6.34
2019-01-05T04:57:50.360Z,6.32
2019-01-05T05:01:23.352Z,6.31
2019-01-05T05:04:55.116Z,6.32
2019-01-05T05:08:10.306Z,6.33
2019-01-05T05:11:36.175Z,6.37
2019-01-05T05:14:55.360Z,6.35
2019-01-05T05:18:21.108Z,6.35
2019-01-05T05:21:49.640Z,6.35
2019-01-05T05:25:36.479Z,6.39
2019-01-05T05:29:16.047Z,6.41
2019-01-05T05:32:51.540Z,6.41
2019-01-05T05:36:35.814Z,6.39
2019-01-05T05:39:52.200Z,6.41
2019-01-05T05:43:22.324Z,6.45
2019-01-05T05:46:27.972Z,6.44
2019-01-05T05:49:51.622Z,6.45
2019-01-05T05:53:33.525Z,6.48
2019-01-05T05:56:57.778Z,6.49
2019-01-05T06:00:15.837Z,6.49
2019-01-05T06:03:20.794Z,6.47
2019-01-05T06:07:01.534Z,6.49
2019-01-05T06:10:45.024Z,6.49
2019-01-05T06:14:05.268Z,6.53
2019-01-05T06:17:40.168Z,6.53
2019-01-05T06:21:12.764Z,6.56
2019-01-05T06:25:04.072Z,6.60
2019-01-05T06:28:46.086Z,6.63
2019-01-05T06:32:32.728Z,6.68
2019-01-05T06:36:00.583Z,6.72
2019-01-05T06:39:35.042Z,6.71
2019-01-05T06:43:10.433Z,6.73
2019-01-05T06:46:44.418Z,6.73
2019-01-05T06:49:55.273Z,6.72
2019-01-05T06:53:11.018Z,6.74
2019-01-05T06:56:58.557Z,6.77
2019-01-05T07:00:20.810Z,6.77
2019-01-05T07:03:40.758Z,6.77
2019-01-05T07:07:08.850Z,6.80
2019-01-05T07:10:40.166Z,6.78
2019-01-05T07:14:04.390Z,6.77
2019-01-05T07:17:49.202Z,6.81
2019-01-05T07:21:03.318Z,6.78
2019-01-05T07:24:39.444Z,6.85
2019-01-05T07:28:16.702Z,6.83
2019-01-05T07:31:45.063Z,6.85
2019-01-05T07:35:42.472Z,6.82
2019-01-05T07:39:05.918Z,6.85
2019-01-05T07:42:32.859Z,6.84
2019-01-05T07:45:52.751Z,6.84
2019-01-05T07:49:45.988Z,6.82
2019-01-05T07:52:57.540Z,6.79
2019-01-05T07:56:21.488Z,6.79
2019-01-05T07:59:48.138Z,6.80
2019-01-05T08:03:26.228Z,6.80
2019-01-05T08:07:00.692Z,6.78
2019-01-05T08:10:34.802Z,6.80
2019-01-05T08:14:16.963Z,6.81
2019-01-05T08:18:01.388Z,6.77
2019-01-05T08:21:43.092Z,6.79
2019-01-05T08:25:11.292Z,6.75
2019-01-05T08:28:29.268Z,6.79
2019-01-05T08:31:55.189Z,6.78
2019-01-05T08:35:21.506Z,6.77
2019-01-05T08:38:45.466Z,6.72
2019-01-05T08:42:09.543Z,6.79
2019-01-05T08:45:42.978Z,6.76
2019-01-05T08:49:16.984Z,6.80
2019-01-05T08:52:43.633Z,6.81
2019-01-05T08:56:44.296Z,6.84
2019-01-05T09:00:13.136Z,6.82
2019-01-05T09:03:54.466Z,6.79
2019-01-05T09:07:38.985Z,6.82
2019-01-05T09:11:01.325Z,6.85
2019-01-05T09:14:42.921Z,6.84
2019-01-05T09:18:07.676Z,6.85
2019-01-05T09:21:49.769Z,6.83
2019-01-05T09:25:37.606Z,6.85
2019-01-05T09:29:31.008Z,6.84
2019-01-05T09:33:28.730Z,6.81
2019-01-05T09:36:38.676Z,6.87
2019-01-05T09:39:59.655Z,6.87
2019-01-05T09:43:36.712Z,6.88
2019-01-05T09:47:06.576Z,6.89
2019-01-05T09:50:44.789Z,6.88
2019-01-05T09:54:14.710Z,6.93
2019-01-05T09:58:21.160Z,6.89
2019-01-05T10:01:46.326Z,6.90
2019-01-05T10:05:15.867Z,6.97
2019-01-05T10:08:49.790Z,7.02
2019-01-05T10:12:37.760Z,7.01
2019-01-05T10:16:02.934Z,7.04
2019-01-05T10:19:31.574Z,7.04
2019-01-05T10:23:09.338Z,7.03
2019-01-05T10:26:45.178Z,7.07
2019-01-05T10:30:09.067Z,7.07
2019-01-05T10:33:54.372Z,7.05
2019-01-05T10:37:29.007Z,7.02
2019-01-05T10:40:52.479Z,7.02
2019-01-05T10:44:20.858Z,7.08
2019-01-05T10:48:00.560Z,7.07
2019-01-05T10:51:14.653Z,7.09
2019-01-05T10:54:51.669Z,7.01
2019-01-05T10:58:16.606Z,7.08
2019-01-05T11:01:41.728Z,7.17
2019-01-05T11:05:11.893Z,7.13
2019-01-05T11:08:41.428Z,7.18
2019-01-05T11:12:19.395Z,7.25
2019-01-05T11:16:15.910Z,7.27
2019-01-05T11:19:33.695Z,7.25
2019-01-05T11:23:17.582Z,7.18
2019-01-05T11:27:07.466Z,7.20
2019-01-05T11:31:01.559Z,7.14
2019-01-05T11:34:45.106Z,7.10
2019-01-05T11:37:58.030Z,7.15
2019-01-05T11:41:20.221Z,7.16
2019-01-05T11:44:27.235Z,7.17
2019-01-05T11:47:36.723Z,7.14
2019-01-05T11:50:49.837Z,7.17
2019-01-05T11:54:11.296Z,7.17
2019-01-05T11:57:37.108Z,7.21
2019-01-05T12:00:53.352Z,7.20
2019-01-05T12:04:14.286Z,7.29
2019-01-05T12:07:49.175Z,7.22
2019-01-05T12:11:26.791Z,7.20
2019-01-05T12:15:13.899Z,7.28
2019-01-05T12:18:31.150Z,7.25
2019-01-05T12:22:04.275Z,7.22
2019-01-05T12:25:48.183Z,7.24
2019-01-05T12:29:26.250Z,7.31
2019-01-05T12:33:08.324Z,7.28
2019-01-05T12:36:39.095Z,7.22
2019-01-05T12:40:09.131Z,7.13
2019-01-05T12:43:52.249Z,7.19
2019-01-05T12:47:15.609Z,7.20
2019-01-05T12:50:48.457Z,7.18
2019-01-05T12:54:39.367Z,7.17
2019-01-05T12:58:09.515Z,7.09
2019-01-05T13:01:37.783Z,7.08
2019-01-05T13:05:25.923Z,7.10
2019-01-05T13:08:39.935Z,7.09
2019-01-05T13:12:12.386Z,7.11
2019-01-05T13:15:33.155Z,7.11
2019-01-05T13:18:58.113Z,7.10
2019-01-05T13:22:37.237Z,7.10
2019-01-05T13:26:18.976Z,7.11
2019-01-05T13:29:56.980Z,7.11
2019-01-05T13:33:37.356Z,7.10
2019-01-05T13:37:03.292Z,7.11
2019-01-05T13:40:08.899Z,7.10
2019-01-05T13:43:20.653Z,7.07
2019-01-05T13:47:16.744Z,7.07
2019-01-05T13:51:07.771Z,7.05
2019-01-05T13:54:11.275Z,7.05
2019-01-05T13:57:21.209Z,7.04
2019-01-05T14:00:09.089Z,7.01
2019-01-05T14:02:57.636Z,7.05
2019-01-05T14:05:49.147Z,7.04
2019-01-05T14:08:52.478Z,7.06
2019-01-05T14:11:43.984Z,7.06
2019-01-05T14:14:44.570Z,7.02
2019-01-05T14:17:40.361Z,7.00
2019-01-05T14:20:27.713Z,6.91
2019-01-05T14:23:14.815Z,6.91
2019-01-05T14:26:18.430Z,6.89
2019-01-05T14:29:06.864Z,6.88
2019-01-05T14:32:07.199Z,6.86
2019-01-05T14:34:58.148Z,6.87
2019-01-05T14:37:44.764Z,6.86
2019-01-05T14:40:29.634Z,6.85
2019-01-05T14:43:17.972Z,6.88
2019-01-05T14:46:12.361Z,6.89
2019-01-05T14:48:59.318Z,6.88
2019-01-05T14:51:38.906Z,6.90
2019-01-05T14:54:30.297Z,6.91
2019-01-05T14:57:29.897Z,6.96
2019-01-05T15:00:18.288Z,6.94
2019-01-05T15:03:05.543Z,6.90
2019-01-05T15:06:02.996Z,6.96
2019-01-05T15:08:55.797Z,6.94
2019-01-05T15:11:44.169Z,6.91
2019-01-05T15:14:31.095Z,6.93
2019-01-05T15:17:32.411Z,6.89
2019-01-05T15:20:19.008Z,6.92
2019-01-05T15:23:16.174Z,6.88
2019-01-05T15:26:01.455Z,6.89
2019-01-05T15:28:52.700Z,6.82
2019-01-05T15:31:41.123Z,6.86
2019-01-05T15:34:35.640Z,6.84
2019-01-05T15:37:23.982Z,6.86
2019-01-05T15:40:11.315Z,6.88
2019-01-05T15:43:02.241Z,6.83
2019-01-05T15:46:02.776Z,6.86
2019-01-05T15:48:57.075Z,6.79
2019-01-05T15:51:54.018Z,6.79
2019-01-05T15:54:42.335Z,6.80
2019-01-05T15:57:45.939Z,6.77
2019-01-05T16:00:43.674Z,6.77
2019-01-05T16:03:32.097Z,6.78
2019-01-05T16:06:23.155Z,6.77
2019-01-05T16:09:13.379Z,6.80
2019-01-05T16:12:16.902Z,6.83
2019-01-05T16:15:08.228Z,6.83
2019-01-05T16:17:57.621Z,6.81
2019-01-05T16:20:48.903Z,6.81
2019-01-05T16:23:37.799Z,6.83
2019-01-05T16:26:33.607Z,6.83
2019-01-05T16:29:24.638Z,6.85
2019-01-05T16:32:12.999Z,6.86
2019-01-05T16:34:59.921Z,6.87
2019-01-05T16:38:00.231Z,6.88
2019-01-05T16:41:06.690Z,6.85
2019-01-05T16:44:00.870Z,6.82
2019-01-05T16:46:48.131Z,6.84
2019-01-05T16:49:42.413Z,6.87
2019-01-05T16:52:29.697Z,6.83
2019-01-05T16:55:18.721Z,6.84
2019-01-05T16:58:05.662Z,6.83
2019-01-05T17:01:09.161Z,6.85
2019-01-05T17:04:00.364Z,6.81
2019-01-05T17:06:48.745Z,6.79
2019-01-05T17:09:39.630Z,6.80
2019-01-05T17:12:43.048Z,6.81
2019-01-05T17:15:43.763Z,6.78
2019-01-05T17:18:39.731Z,6.76
2019-01-05T17:21:24.903Z,6.79
2019-01-05T17:24:12.034Z,6.77
2019-01-05T17:26:59.077Z,6.77
2019-01-05T17:29:39.491Z,6.75
2019-01-05T17:32:26.661Z,6.78
2019-01-05T17:35:13.530Z,6.76
2019-01-05T17:38:00.761Z,6.78
2019-01-05T17:41:04.416Z,6.75
2019-01-05T17:43:49.927Z,6.79
2019-01-05T17:46:36.822Z,6.74
2019-01-05T17:49:27.940Z,6.72
2019-01-05T17:52:28.286Z,6.64
2019-01-05T17:55:29.120Z,6.63
2019-01-05T17:58:11.338Z,6.64
2019-01-05T18:00:58.562Z,6.57
2019-01-05T18:03:50.001Z,6.59
2019-01-05T18:06:33.729Z,6.61
2019-01-05T18:09:26.792Z,6.57
2019-01-05T18:12:09.265Z,6.56
2019-01-05T18:14:56.100Z,6.59
2019-01-05T18:17:43.360Z,6.59
2019-01-05T18:20:34.703Z,6.54
2019-01-05T18:23:21.971Z,6.57
2019-01-05T18:26:20.144Z,6.55
2019-01-05T18:29:11.255Z,6.53
2019-01-05T18:31:58.379Z,6.53
2019-01-05T18:34:45.216Z,6.53
2019-01-05T18:37:32.338Z,6.48
2019-01-05T18:40:19.570Z,6.49
2019-01-05T18:43:26.095Z,6.51
2019-01-05T18:46:07.823Z,6.47
2019-01-05T18:48:54.775Z,6.46
2019-01-05T18:51:41.765Z,6.46
2019-01-05T18:54:28.881Z,6.46
2019-01-05T18:57:25.326Z,6.44
2019-01-05T19:00:12.510Z,6.46
2019-01-05T19:03:00.935Z,6.46
2019-01-05T19:05:55.105Z,6.45
2019-01-05T19:08:41.971Z,6.49
2019-01-05T19:11:33.072Z,6.46
2019-01-05T19:14:27.310Z,6.40
2019-01-05T19:17:14.473Z,6.41
2019-01-05T19:20:11.840Z,6.42
2019-01-05T19:22:56.086Z,6.37
2019-01-05T19:25:44.463Z,6.40
2019-01-05T19:28:38.508Z,6.41
2019-01-05T19:31:25.262Z,6.39
2019-01-05T19:34:29.025Z,6.36
2019-01-05T19:37:25.970Z,6.34
2019-01-05T19:40:12.980Z,6.38
2019-01-05T19:43:04.274Z,6.37
2019-01-05T19:45:46.011Z,6.37
2019-01-05T19:48:34.373Z,6.33
2019-01-05T19:51:21.202Z,6.32
2019-01-05T19:54:08.549Z,6.36
2019-01-05T19:56:55.437Z,6.32
2019-01-05T19:59:58.931Z,6.35
2019-01-05T20:02:45.844Z,6.30
2019-01-05T20:05:34.230Z,6.30
2019-01-05T20:08:38.646Z,6.28
2019-01-05T20:11:45.246Z,6.32
2019-01-05T20:14:29.996Z,6.30
2019-01-05T20:17:36.744Z,6.28
2019-01-05T20:20:21.887Z,6.28
2019-01-05T20:23:17.572Z,6.26
2019-01-05T20:26:21.093Z,6.21
2019-01-05T20:29:18.802Z,6.22
2019-01-05T20:32:07.197Z,6.23
2019-01-05T20:34:47.806Z,6.18
2019-01-05T20:37:51.818Z,6.20
2019-01-05T20:40:43.029Z,6.20
2019-01-05T20:43:34.418Z,6.25
2019-01-05T20:46:22.843Z,6.20
2019-01-05T20:49:07.844Z,6.15
2019-01-05T20:52:11.523Z,6.14
2019-01-05T20:54:58.594Z,6.13
2019-01-05T20:57:45.621Z,6.13
2019-01-05T21:00:42.905Z,6.14
2019-01-05T21:03:28.832Z,6.17
2019-01-05T21:06:20.487Z,6.19
2019-01-05T21:09:07.820Z,6.16
2019-01-05T21:11:56.206Z,6.17
2019-01-05T21:14:43.517Z,6.18
2019-01-05T21:17:42.379Z,6.15
2019-01-05T21:20:44.853Z,6.11
2019-01-05T21:23:46.234Z,6.16
2019-01-05T21:26:37.607Z,6.14
2019-01-05T21:29:24.863Z,6.12
2019-01-05T21:32:11.992Z,6.13
2019-01-05T21:35:09.741Z,6.15
2019-01-05T21:37:49.849Z,6.17
2019-01-05T21:40:37.369Z,6.14
2019-01-05T21:43:28.629Z,6.09
2019-01-05T21:46:15.713Z,6.05
2019-01-05T21:49:04.555Z,6.06
2019-01-05T21:51:55.865Z,6.06
2019-01-05T21:54:49.945Z,6.04
2019-01-05T21:57:37.079Z,6.10
2019-01-05T22:00:31.182Z,6.10
2019-01-05T22:03:18.679Z,6.08
2019-01-05T22:06:10.090Z,6.06
2019-01-05T22:09:07.929Z,6.06
2019-01-05T22:11:55.116Z,6.07
2019-01-05T22:14:46.780Z,6.02
2019-01-05T22:17:34.335Z,6.03
2019-01-05T22:20:21.485Z,6.03
2019-01-05T22:23:08.210Z,6.03
2019-01-05T22:25:55.127Z,5.96
2019-01-05T22:28:52.971Z,5.94
2019-01-05T22:31:51.579Z,5.95
2019-01-05T22:34:40.459Z,5.86
2019-01-05T22:37:27.474Z,5.86
2019-01-05T22:40:10.143Z,5.89
2019-01-05T22:43:00.503Z,5.88
2019-01-05T22:46:03.998Z,5.90
2019-01-05T22:48:51.128Z,5.88
2019-01-05T22:51:43.017Z,5.88
2019-01-05T22:54:31.321Z,5.87
2019-01-05T22:57:19.243Z,5.90
2019-01-05T23:00:10.459Z,5.88
2019-01-05T23:03:13.994Z,5.86
2019-01-05T23:06:17.489Z,5.87
2019-01-05T23:09:15.014Z,5.85
2019-01-05T23:12:21.687Z,5.86
2019-01-05T23:15:19.016Z,5.87
2019-01-05T23:18:06.177Z,5.90
2019-01-05T23:21:05.175Z,5.90
2019-01-05T23:23:53.879Z,5.92
2019-01-05T23:26:54.306Z,5.92
2019-01-05T23:29:41.157Z,5.90
2019-01-05T23:32:31.352Z,5.93
2019-01-05T23:35:28.400Z,5.92
2019-01-05T23:38:15.555Z,5.88
2019-01-05T23:41:07.439Z,5.84
2019-01-05T23:43:54.422Z,5.87
2019-01-05T23:46:48.065Z,5.82
2019-01-05T23:49:33.300Z,5.83
2019-01-05T23:52:34.091Z,5.89
2019-01-05T23:55:22.851Z,5.86
2019-01-05T23:58:01.079Z,5.84
